Columbia Regional Airport
KCOU : now visible

Airfield :











YOU CAN JOIN US ON...

 
LOGIN :

Register | Disclaimer

   EN    FR    IT 

 









Legend :    VFR   Marginal VFR   IFR   Intensive IFR   Very Intensive IFR
Visi :
Ceiling :
>= 8 km
>= 3000ft
5 to 8 km
1000 to 3000 ft
1500m to 5 km
500 to 1000 ft
800 to 1500m
200 to 500 ft
< 800m
< 200 ft
Symbols :   Thunderstorms  Fog  Heavy snow  Heavy precipitations  Wind > 20 kt







- Airport Elevation : 889 ft
- IATA code : COU


KCOU - Columbia Regional

CURRENT METAR :
  • 221154Z 16009KT 10SM CLR 17/11 A2999 RMK AO2 RAE03 SLP147 P0000 60000 T01670111 10217 20161 50001

EXPIRED METARs :
  • 221054Z AUTO 16010KT 10SM -RA BKN060 BKN080 OVC095 18/11 A2999 RMK AO2 RAB45 SLP148 P0000 T01780111
  • 220954Z AUTO 17008KT 10SM FEW070 18/10 A2999 RMK AO2 SLP147 T01830100

TAF KCOU
Valid from the 22 at 12:00 until the 23 at 12:00 UTC


221122Z 2212/2312 18010KT P6SM BKN060
FM221800 22012G20KT P6SM BKN050
FM230000 26010KT P6SM BKN050
FM230500 31007KT P6SM BKN045
KZKC FIR / North America



MET'MAP, your aeronautical weather chart ! - Copyright ORBIFLY December 2007 - Disclaimer

ORBIFLY MET'MAP TEAM :

Programming & Development : Alexandra Zaïnal
Concept & Development : Baudouin d'Aumeries
Co-Development & Prog : Marc-Olivier Méhu
Technical & hardware support : Manuel Goepfert

Contact : metmap@orbifly.com




SOURCES & CREDITS :

   NOAA       Earth
Advisory